Upstream stations:
Downstream station:
SHEF ID: BFFO2 Cimarron River near Buffalo, OK
STATION TYPE:
Regulating: Stage = 6.00, Flow = 750
PRECIP STAGE RIV-FLOW BAT-LOAD
in ft cfs volt
Ccp-Rev Ccp-Rev Ccp-Rev Ccp-Rev
(US/Central)
01/08 00:00 0.00 3.15 7 12.65
01/08 01:00 0.00 3.16 8 12.65
01/08 02:00 0.00 3.19 9 12.57
01/08 03:00 0.00 3.14 7 12.57
01/08 04:00 0.00 3.15 7 12.57
01/08 05:00 0.00 3.12 6 12.49
01/08 06:00 0.00 3.13 6 12.49
01/08 07:00 0.00 3.13 6 12.41
01/08 08:00 0.00 3.12 6 12.41
01/08 09:00 0.00 3.09 5 13.13
01/08 10:00 0.00 3.12 6 13.53
01/08 11:00 0.00 3.13 6 13.53
01/08 12:00 0.00 3.14 7 13.53
01/08 13:00 0.00 3.17 8 13.76
01/08 14:00 0.00 3.19 9 13.68
01/08 15:00 0.00 3.22 11 13.53
01/08 16:00 0.00 3.29 16 13.44
01/08 17:00 0.00 3.33 19 13.60
01/08 18:00 0.00 3.31 17 13.21
01/08 19:00 0.00 3.32 18 12.97
01/08 20:00 0.00 3.35 21 12.89
01/08 21:00 0.00 3.31 17 12.81
01/08 22:00 0.00 3.30 16 12.81
01/08 23:00 0.00 3.30 16 12.73